FW5165 Weather Reports


Display with metric or nautical units.
time (UTC)temp
F
wind
direction
speed
MPH
gust
MPH
rain 1hr
in
rain 24hr
in
rain mn
in
humidity
%
barometer
mb
20260904091011 61 169 6.0 10.0 0.02 0.12 0.03 94 1012.7
20260904090512 61 169 6.0 9.0 0.02 0.12 0.03 94 1012.7
20260904090029 62 173 4.0 9.0 0.02 0.12 0.03 94 1012.8
20260904085511 62 147 4.0 8.0 0.02 0.12 0.03 94 1012.7
20260904085011 62 162 4.0 7.0 0.02 0.12 0.03 94 1012.8
20260904084511 62 159 4.0 7.0 0.01 0.11 0.02 94 1012.8
20260904084013 62 176 4.0 8.0 0.01 0.11 0.02 94 1012.8
20260904083509 62 171 5.0 8.0 0.01 0.11 0.02 93 1012.9
20260904083009 62 188 5.0 8.0 0.01 0.11 0.02 93 1013.0
20260904082509 62 177 4.0 8.0 0.00 0.10 0.01 93 1013.0
20260904082008 62 157 4.0 8.0 0.00 0.10 0.01 94 1012.9
20260904081510 62 160 5.0 10.0 0.00 0.10 0.01 94 1012.8
20260904081008 62 157 6.0 10.0 0.00 0.10 0.01 94 1012.8
20260904080508 62 169 6.0 9.0 0.01 0.10 0.01 94 1012.8
20260904080009 62 155 4.0 8.0 0.01 0.10 0.01 94 1012.9
20260904075506 62 142 6.0 10.0 0.01 0.10 0.01 94 1012.9
20260904075005 62 155 5.0 10.0 0.01 0.10 0.01 94 1012.9
20260904074505 62 155 4.0 8.0 0.01 0.10 0.01 94 1012.9
20260904074004 61 147 5.0 7.0 0.01 0.10 0.01 94 1012.9
20260904073504 61 172 0.0 3.0 0.01 0.10 0.01 94 1012.9
20260904073003 61 174 1.0 4.0 0.02 0.10 0.01 94 1012.9
20260904072503 61 171 1.0 4.0 0.02 0.10 0.01 94 1012.9
20260904072005 61 175 1.0 3.0 0.02 0.10 0.01 94 1012.9
20260904071502 61 179 0.0 2.0 0.02 0.10 0.01 94 1012.9
20260904071002 61 179 0.0 1.0 0.02 0.10 0.01 94 1013.0
20260904070504 61 179 0.0 1.0 0.01 0.09 0.00 94 1013.0
20260904070117 61 179 0.0 1.0 0.01 0.09 0.00 94 1013.0
20260904065602 61 179 0.0 1.0 0.01 0.09 0.09 94 1013.0
20260904065059 61 179 0.0 1.0 0.01 0.09 0.09 94 1013.0
20260904064559 61 179 0.0 1.0 0.01 0.09 0.09 94 1013.0
20260904064059 61 179 0.0 1.0 0.01 0.09 0.09 94 1013.0
20260904063559 61 179 0.0 1.0 0.02 0.09 0.09 94 1013.1
20260904063107 61 179 0.0 2.0 0.01 0.08 0.08 94 1013.1
20260904062601 61 179 0.0 4.0 0.01 0.08 0.08 94 1013.0
20260904062059 61 179 1.0 4.0 0.02 0.08 0.08 93 1013.1
20260904061601 61 268 1.0 2.0 0.02 0.08 0.08 94 1013.1
20260904061101 61 272 0.0 2.0 0.03 0.08 0.08 93 1013.1
20260904060603 61 272 0.0 1.0 0.04 0.08 0.08 93 1013.1
20260904060059 61 272 0.0 2.0 0.04 0.08 0.08 93 1013.1
20260904055557 60 272 0.0 2.0 0.05 0.08 0.08 94 1013.2
20260904055057 60 273 0.0 2.0 0.05 0.08 0.08 93 1013.2
20260904054558 60 273 0.0 2.0 0.05 0.08 0.08 93 1013.1
20260904054058 60 273 0.0 4.0 0.05 0.08 0.08 93 1013.2
20260904053557 60 273 1.0 4.0 0.05 0.07 0.07 93 1013.2
20260904053104 60 271 0.0 4.0 0.05 0.07 0.07 93 1013.2
20260904052557 60 271 0.0 4.0 0.05 0.07 0.07 93 1013.3
20260904052058 61 271 0.0 6.0 0.04 0.06 0.06 93 1013.4
20260904051557 61 271 1.0 7.0 0.03 0.05 0.05 93 1013.4
20260904051057 61 271 3.0 8.0 0.03 0.05 0.05 92 1013.4
20260904050555 61 271 4.0 8.0 0.02 0.04 0.04 92 1013.4
20260904050058 61 238 1.0 5.0 0.02 0.04 0.04 92 1013.2
20260904045556 61 145 0.0 1.0 0.02 0.03 0.03 93 1013.2
20260904045055 61 145 0.0 4.0 0.02 0.03 0.03 92 1013.1
20260904044555 61 145 0.0 4.0 0.02 0.03 0.03 92 1013.2
20260904044054 61 145 0.0 2.0 0.02 0.03 0.03 93 1013.1
20260904043554 61 145 0.0 2.0 0.01 0.02 0.02 93 1013.1
20260904043100 61 145 0.0 2.0 0.01 0.02 0.02 92 1013.1
20260904042557 61 145 0.0 4.0 0.01 0.02 0.02 92 1013.1
20260904042054 61 144 0.0 4.0 0.01 0.02 0.02 92 1013.0
20260904041554 61 150 1.0 4.0 0.01 0.02 0.02 92 1013.0
20260904041053 61 157 0.0 2.0 0.01 0.02 0.02 92 1012.9
20260904040553 61 157 0.0 5.0 0.02 0.02 0.02 91 1013.1
20260904040105 61 157 3.0 5.0 0.02 0.02 0.02 91 1013.1
20260904035553 61 251 1.0 3.0 0.01 0.01 0.01 91 1013.2
20260904035055 61 288 1.0 4.0 0.01 0.01 0.01 91 1013.3
20260904034553 61 303 0.0 1.0 0.01 0.01 0.01 91 1013.2
20260904034052 61 303 0.0 1.0 0.01 0.01 0.01 91 1013.1
20260904033553 61 303 0.0 1.0 0.01 0.01 0.01 91 1013.0
20260904033051 61 303 0.0 5.0 0.01 0.01 0.01 90 1012.9
20260904032551 61 303 1.0 5.0 0.01 0.01 0.01 90 1013.0
20260904032051 61 288 1.0 4.0 0.01 0.01 0.01 90 1013.0
20260904031556 61 287 0.0 2.0 0.01 0.01 0.01 89 1013.0
20260904031051 61 287 1.0 2.0 0.01 0.01 0.01 89 1013.0
20260904030551 61 286 0.0 5.0 0.00 0.00 0.00 89 1013.1
20260904030053 61 286 0.0 7.0 0.00 0.00 0.00 88 1013.0
20260904025550 62 304 2.0 7.0 0.00 0.00 0.00 87 1013.1
20260904025049 63 296 3.0 7.0 0.00 0.00 0.00 86 1013.1
20260904024549 64 329 4.0 9.0 0.00 0.00 0.00 86 1013.0
20260904024049 65 360 1.0 7.0 0.00 0.00 0.00 84 1013.1
20260904023550 65 360 1.0 7.0 0.00 0.00 0.00 82 1013.0
20260904023047 66 360 2.0 9.0 0.00 0.00 0.00 81 1013.0
20260904022547 66 360 2.0 9.0 0.00 0.00 0.00 80 1013.0
20260904022046 66 360 2.0 10.0 0.00 0.00 0.00 80 1012.9
20260904021546 66 360 6.0 10.0 0.00 0.00 0.00 79 1013.0
20260904021046 66 257 2.0 7.0 0.00 0.00 0.00 79 1012.9
20260904020548 66 275 2.0 5.0 0.00 0.00 0.00 79 1013.0
20260904020048 66 265 2.0 7.0 0.00 0.00 0.00 79 1012.9
20260904015545 66 262 2.0 8.0 0.00 0.00 0.00 79 1012.9
20260904015045 66 241 5.0 8.0 0.00 0.00 0.00 79 1013.0
20260904014552 67 227 3.0 9.0 0.00 0.00 0.00 78 1013.0
20260904014045 67 221 5.0 10.0 0.00 0.00 0.00 77 1013.0
20260904013544 67 267 6.0 10.0 0.00 0.00 0.00 77 1013.0
20260904013047 68 271 4.0 12.0 0.00 0.00 0.00 75 1013.0
20260904012547 68 229 7.0 12.0 0.00 0.00 0.00 74 1013.1
20260904012045 68 225 6.0 9.0 0.00 0.00 0.00 73 1013.0
20260904011546 68 246 3.0 12.0 0.00 0.00 0.00 73 1013.0
20260904011043 69 242 5.0 12.0 0.00 0.00 0.00 72 1013.0
20260904010544 69 265 6.0 13.0 0.00 0.00 0.00 72 1013.0
20260904010043 69 248 7.0 13.0 0.00 0.00 0.00 71 1013.0
20260904005541 69 231 7.0 12.0 0.00 0.00 0.00 71 1013.2
20260904005042 69 235 7.0 12.0 0.00 0.00 0.00 71 1013.1
20260904004541 69 221 4.0 11.0 0.00 0.00 0.00 71 1013.2
20260904004041 69 229 6.0 9.0 0.00 0.00 0.00 71 1013.2
20260904003541 69 278 5.0 9.0 0.00 0.00 0.00 70 1013.2
20260904003042 69 240 6.0 10.0 0.00 0.00 0.00 70 1013.2
20260904002544 70 182 7.0 10.0 0.00 0.00 0.00 70 1013.1
20260904002040 70 198 5.0 11.0 0.00 0.00 0.00 70 1013.1
20260904001546 70 211 7.0 13.0 0.00 0.00 0.00 70 1013.2
20260904001041 70 190 6.0 13.0 0.00 0.00 0.00 69 1013.2
20260904000540 70 219 8.0 12.0 0.00 0.00 0.00 69 1013.3
20260904000043 70 219 6.0 11.0 0.00 0.00 0.00 69 1013.2
20260903235640 70 212 6.0 13.0 0.00 0.00 0.00 69 1013.2
20260903235038 70 238 8.0 13.0 0.00 0.00 0.00 69 1013.3
20260903234538 70 226 7.0 13.0 0.00 0.00 0.00 70 1013.2
20260903234039 70 217 8.0 12.0 0.00 0.00 0.00 70 1013.3
20260903233547 70 231 6.0 13.0 0.00 0.00 0.00 70 1013.4
20260903233036 70 234 6.0 11.0 0.00 0.00 0.00 69 1013.4
20260903232536 70 237 7.0 12.0 0.00 0.00 0.00 69 1013.4
20260903232035 70 232 5.0 9.0 0.00 0.00 0.00 70 1013.4
20260903231540 70 196 5.0 8.0 0.00 0.00 0.00 70 1013.5
20260903231034 69 202 5.0 8.0 0.00 0.00 0.00 69 1013.5
20260903230533 69 215 5.0 9.0 0.00 0.00 0.00 69 1013.5
20260903230045 70 203 5.0 11.0 0.00 0.00 0.00 69 1013.6
20260903225536 69 190 5.0 9.0 0.00 0.00 0.00 69 1013.7
20260903225032 69 170 5.0 9.0 0.00 0.00 0.00 69 1013.8
20260903224534 70 196 6.0 8.0 0.00 0.00 0.00 69 1013.8
20260903224032 69 182 2.0 7.0 0.00 0.00 0.00 70 1013.7
20260903223531 69 164 2.0 9.0 0.00 0.00 0.00 70 1013.9
20260903223030 69 207 5.0 10.0 0.00 0.00 0.00 69 1014.0
20260903222532 69 185 5.0 11.0 0.00 0.00 0.00 70 1013.9
20260903222031 69 182 6.0 11.0 0.00 0.00 0.00 70 1014.0
20260903221529 69 191 5.0 11.0 0.00 0.00 0.00 70 1014.1
20260903221028 69 174 6.0 11.0 0.00 0.00 0.00 70 1014.2
20260903220527 69 169 5.0 11.0 0.00 0.00 0.00 70 1014.3
20260903220028 69 215 6.0 11.0 0.00 0.00 0.00 71 1014.3
20260903215526 69 217 6.0 11.0 0.00 0.00 0.00 71 1014.3
20260903215025 69 188 7.0 11.0 0.00 0.00 0.00 71 1014.4
20260903214530 69 205 6.0 10.0 0.00 0.00 0.00 70 1014.5
20260903214024 69 212 7.0 10.0 0.00 0.00 0.00 70 1014.6
20260903213524 69 220 3.0 9.0 0.00 0.00 0.00 71 1014.5
20260903213035 69 224 5.0 9.0 0.00 0.00 0.00 70 1014.7
20260903212528 69 252 6.0 11.0 0.00 0.00 0.00 70 1014.7
20260903212024 69 238 6.0 11.0 0.00 0.00 0.00 70 1014.7
20260903211529 69 249 5.0 10.0 0.00 0.00 0.00 70 1014.7
20260903211022 69 236 5.0 9.0 0.00 0.00 0.00 70 1014.7
20260903210521 69 221 5.0 11.0 0.00 0.00 0.00 70 1014.7
20260903210021 69 227 6.0 11.0 0.00 0.00 0.00 69 1014.7
20260903205520 69 220 6.0 10.0 0.00 0.00 0.00 69 1014.8
20260903205019 69 225 6.0 11.0 0.00 0.00 0.00 70 1014.7
20260903204519 69 226 7.0 11.0 0.00 0.00 0.00 70 1014.8
20260903204018 69 254 5.0 11.0 0.00 0.00 0.00 70 1014.7
20260903203520 69 203 7.0 14.0 0.00 0.00 0.00 70 1014.8
20260903203016 69 207 7.0 12.0 0.00 0.00 0.00 70 1014.8
20260903202516 68 212 7.0 12.0 0.00 0.00 0.00 70 1014.7
20260903202016 69 207 6.0 12.0 0.00 0.00 0.00 70 1014.8
20260903201529 68 188 5.0 12.0 0.00 0.00 0.00 70 1014.8
20260903201014 68 186 8.0 12.0 0.00 0.00 0.00 70 1014.9
20260903200515 68 224 7.0 11.0 0.00 0.00 0.00 71 1015.0
20260903200013 68 261 7.0 13.0 0.00 0.00 0.00 71 1015.1
20260903195509 68 235 8.0 13.0 0.00 0.00 0.00 71 1015.2
20260903195012 68 209 6.0 12.0 0.00 0.00 0.00 72 1015.1
20260903194507 67 231 6.0 11.0 0.00 0.00 0.00 72 1015.2
20260903194008 67 209 5.0 10.0 0.00 0.00 0.00 72 1015.3
20260903193506 67 197 8.0 10.0 0.00 0.00 0.00 72 1015.3
20260903193006 67 217 6.0 10.0 0.00 0.00 0.00 72 1015.4
20260903192505 67 201 6.0 10.0 0.00 0.00 0.00 71 1015.4
20260903192004 67 215 5.0 12.0 0.00 0.00 0.00 72 1015.5
20260903191504 67 215 8.0 12.0 0.00 0.00 0.00 72 1015.5
20260903191004 67 222 8.0 12.0 0.00 0.00 0.00 71 1015.6
20260903190507 67 212 7.0 11.0 0.00 0.00 0.00 71 1015.6
20260903190005 67 203 6.0 13.0 0.00 0.00 0.00 71 1015.7
20260903185502 67 183 9.0 13.0 0.00 0.00 0.00 71 1015.7
20260903185002 67 171 7.0 13.0 0.00 0.00 0.00 70 1015.7
20260903184502 67 195 9.0 13.0 0.00 0.00 0.00 70 1015.8
20260903184002 67 217 6.0 11.0 0.00 0.00 0.00 71 1015.8
20260903183600 68 174 7.0 11.0 0.00 0.00 0.00 70 1015.8
20260903183059 68 194 7.0 12.0 0.00 0.00 0.00 69 1015.8
20260903182601 67 157 7.0 12.0 0.00 0.00 0.00 70 1015.9
20260903182058 67 202 7.0 12.0 0.00 0.00 0.00 69 1015.8
20260903181600 67 144 7.0 13.0 0.00 0.00 0.00 70 1015.8
20260903181055 67 138 5.0 11.0 0.00 0.00 0.00 70 1015.9
20260903180554 67 155 6.0 12.0 0.00 0.00 0.00 70 1016.0
20260903180053 66 160 6.0 13.0 0.00 0.00 0.00 70 1016.0
20260903175552 66 142 8.0 13.0 0.00 0.00 0.00 70 1016.0
20260903175056 66 155 9.0 14.0 0.00 0.00 0.00 69 1016.0
20260903174550 66 159 6.0 14.0 0.00 0.00 0.00 70 1016.0
20260903174049 65 360 7.0 13.0 0.00 0.00 0.00 71 1016.1
20260903173548 65 360 6.0 14.0 0.00 0.00 0.00 72 1016.1
20260903173048 64 360 9.0 16.0 0.00 0.00 0.00 73 1016.2
20260903172548 64 360 8.0 16.0 0.00 0.00 0.00 73 1016.3
20260903172048 64 360 7.0 12.0 0.00 0.00 0.00 73 1016.3
20260903171548 64 360 6.0 14.0 0.00 0.00 0.00 73 1016.2
20260903171048 64 194 8.0 14.0 0.00 0.00 0.00 74 1016.1
20260903170551 63 175 7.0 13.0 0.00 0.00 0.00 74 1016.2
20260903170058 63 192 6.0 13.0 0.00 0.00 0.00 73 1016.2
20260903165547 63 198 5.0 11.0 0.00 0.00 0.00 73 1016.3
20260903165049 63 163 5.0 11.0 0.00 0.00 0.00 73 1016.3
20260903164546 63 180 7.0 11.0 0.00 0.00 0.00 73 1016.4
20260903164047 63 144 6.0 12.0 0.00 0.00 0.00 73 1016.3
20260903163545 63 176 7.0 13.0 0.00 0.00 0.00 73 1016.3
20260903163046 63 159 7.0 13.0 0.00 0.00 0.00 73 1016.3
20260903162545 63 184 6.0 11.0 0.00 0.00 0.00 73 1016.3
20260903162045 62 187 6.0 10.0 0.00 0.00 0.00 73 1016.4
20260903161545 62 186 5.0 12.0 0.00 0.00 0.00 74 1016.4
20260903161046 62 204 6.0 12.0 0.00 0.00 0.00 73 1016.4
20260903160545 62 197 6.0 11.0 0.00 0.00 0.00 74 1016.5
20260903160045 62 149 7.0 10.0 0.00 0.00 0.00 74 1016.4
20260903155544 62 128 5.0 12.0 0.00 0.00 0.00 74 1016.5
20260903155045 62 148 7.0 12.0 0.00 0.00 0.00 74 1016.5
20260903154547 62 148 8.0 11.0 0.00 0.00 0.00 75 1016.6
20260903154044 61 171 5.0 11.0 0.00 0.00 0.00 75 1016.7
20260903153543 61 155 7.0 12.0 0.00 0.00 0.00 75 1016.7
20260903153055 61 155 5.0 12.0 0.00 0.00 0.00 75 1016.6
20260903152545 61 155 7.0 12.0 0.00 0.00 0.00 76 1016.6
20260903152046 61 163 6.0 10.0 0.00 0.00 0.00 76 1016.7
20260903151543 61 169 5.0 8.0 0.00 0.00 0.00 76 1016.6
20260903151042 61 148 3.0 8.0 0.00 0.00 0.00 77 1016.6
20260903150543 60 167 5.0 9.0 0.00 0.00 0.00 77 1016.6
20260903150053 60 155 6.0 9.0 0.00 0.00 0.00 77 1016.6
20260903145542 60 137 2.0 6.0 0.00 0.00 0.00 78 1016.5
20260903145041 60 186 3.0 6.0 0.00 0.00 0.00 78 1016.5
20260903144543 60 196 2.0 5.0 0.00 0.00 0.00 78 1016.5
20260903144040 60 155 2.0 6.0 0.00 0.00 0.00 78 1016.4
20260903143542 60 171 2.0 6.0 0.00 0.00 0.00 78 1016.5
20260903143053 60 182 1.0 7.0 0.00 0.00 0.00 78 1016.5
20260903142542 60 184 2.0 8.0 0.00 0.00 0.00 79 1016.5
20260903142041 60 171 2.0 8.0 0.00 0.00 0.00 79 1016.4
20260903141544 60 147 4.0 8.0 0.00 0.00 0.00 79 1016.4
20260903141140 60 162 4.0 8.0 0.00 0.00 0.00 79 1016.3
20260903140540 60 161 5.0 9.0 0.00 0.00 0.00 78 1016.3
20260903140038 60 165 4.0 9.0 0.00 0.00 0.00 78 1016.3
20260903135539 59 145 5.0 9.0 0.00 0.00 0.00 78 1016.3
20260903135037 59 144 4.0 8.0 0.00 0.00 0.00 78 1016.1
20260903134539 60 144 4.0 7.0 0.00 0.00 0.00 78 1016.2
20260903134038 60 144 3.0 7.0 0.00 0.00 0.00 78 1016.1
20260903133537 60 143 5.0 9.0 0.00 0.00 0.00 78 1016.1
20260903133037 60 151 5.0 9.0 0.00 0.00 0.00 78 1016.1
20260903132538 60 143 6.0 9.0 0.00 0.00 0.00 79 1016.1
20260903132036 60 136 6.0 9.0 0.00 0.00 0.00 79 1016.1
20260903131535 60 167 5.0 9.0 0.00 0.00 0.00 79 1016.2
20260903131037 60 151 3.0 9.0 0.00 0.00 0.00 78 1016.2
20260903130536 60 157 5.0 7.0 0.00 0.00 0.00 78 1016.1
20260903130034 60 158 2.0 5.0 0.00 0.00 0.00 78 1016.1
20260903125535 60 160 1.0 8.0 0.00 0.00 0.00 78 1016.3
20260903125036 60 160 2.0 8.0 0.00 0.00 0.00 78 1016.2
20260903124535 60 144 3.0 8.0 0.00 0.00 0.00 78 1016.2
20260903124036 60 148 3.0 9.0 0.00 0.00 0.00 78 1016.2
20260903123533 60 142 5.0 11.0 0.00 0.00 0.00 78 1016.3
20260903123033 60 205 5.0 11.0 0.00 0.00 0.00 78 1016.2
20260903122532 60 171 6.0 10.0 0.00 0.00 0.00 78 1016.2
20260903122030 60 171 6.0 10.0 0.00 0.00 0.00 78 1016.1
20260903121531 60 164 6.0 9.0 0.00 0.00 0.00 78 1016.2
20260903121029 60 165 6.0 11.0 0.00 0.00 0.00 78 1016.3
20260903120528 60 176 5.0 11.0 0.00 0.00 0.00 77 1016.3
20260903120032 60 170 7.0 11.0 0.00 0.00 0.00 77 1016.5
20260903115529 60 153 7.0 10.0 0.00 0.00 0.00 76 1016.5
20260903115026 60 160 4.0 8.0 0.00 0.00 0.00 76 1016.5
20260903114528 60 186 5.0 8.0 0.00 0.00 0.00 76 1016.6
20260903114029 60 188 3.0 9.0 0.00 0.00 0.00 76 1016.6
20260903113525 60 139 5.0 7.0 0.00 0.00 0.00 76 1016.7
20260903113029 61 178 3.0 9.0 0.00 0.00 0.00 75 1016.7
20260903112524 61 181 4.0 8.0 0.00 0.00 0.00 75 1016.7
20260903112024 61 159 4.0 9.0 0.00 0.00 0.00 75 1016.6
20260903111531 61 178 6.0 9.0 0.00 0.00 0.00 74 1016.6
20260903111025 61 183 5.0 11.0 0.00 0.00 0.00 74 1016.6
20260903110523 61 188 6.0 11.0 0.00 0.00 0.00 74 1016.7
20260903110023 61 163 6.0 11.0 0.00 0.00 0.00 74 1016.6
20260903105526 61 157 6.0 10.0 0.00 0.00 0.00 74 1016.6
20260903105021 61 190 6.0 10.0 0.00 0.00 0.00 75 1016.6
20260903104521 61 198 6.0 8.0 0.00 0.00 0.00 74 1016.7
20260903104020 61 189 4.0 8.0 0.00 0.00 0.00 73 1016.6
20260903103520 61 184 5.0 8.0 0.00 0.00 0.00 72 1016.6
20260903103019 61 186 4.0 10.0 0.00 0.00 0.00 72 1016.5
20260903102519 62 178 6.0 10.0 0.00 0.00 0.00 72 1016.5
20260903102018 61 187 5.0 10.0 0.00 0.00 0.00 72 1016.5
20260903101525 62 169 4.0 8.0 0.00 0.00 0.00 72 1016.5
20260903101017 62 200 4.0 8.0 0.00 0.00 0.00 72 1016.6
20260903100516 62 182 4.0 8.0 0.00 0.00 0.00 72 1016.6
20260903100016 62 175 4.0 8.0 0.00 0.00 0.00 72 1016.7
20260903095515 61 187 4.0 7.0 0.00 0.00 0.00 73 1016.8
20260903095115 61 186 3.0 6.0 0.00 0.00 0.00 73 1016.8
20260903094514 62 195 2.0 5.0 0.00 0.00 0.00 73 1016.8
20260903094013 62 196 2.0 5.0 0.00 0.00 0.00 72 1016.8
20260903093512 62 184 1.0 6.0 0.00 0.00 0.00 71 1016.9
20260903093012 62 184 4.0 6.0 0.00 0.00 0.00 71 1017.0
20260903092511 62 187 2.0 7.0 0.00 0.00 0.00 71 1017.0
20260903092013 62 172 3.0 9.0 0.00 0.00 0.00 70 1017.0
20260903091510 62 169 3.0 9.0 0.00 0.00 0.00 70 1017.0